< < Back
Terminal Aerodrome Forecast


Current Version              Previous Versions:   1  2  3  4  5  6  7  8  9  

Terminal Aerodrome Forecast

896
FTUS42 KFFC 182335
TAFCSG
TAF
KCSG 182335Z 1900/1924 32004KT P6SM SCT060 BKN120
      TEMPO 1900/1902 BKN060
     FM190200 34003KT P6SM SCT080 BKN150
     FM190900 00000KT P6SM SCT150
     FM191600 02003KT P6SM OVC100=

Latest METAR

296
SAUS70 KWBC 191400 RRA
MTRCSG
METAR KCSG 191351Z 03003KT 10SM CLR 06/01 A3017 RMK AO2 SLP216
T00610011


USA.gov is the U.S. government's official web portal to all federal, state and local government web resources and services.